sensor_id;sensor_type;location;lat;lon;timestamp;P1;durP1;ratioP1;P2;durP2;ratioP2
16522;SDS011;19889;52.546;13.348;2022-07-23T00:00:04;498.15;;;464.10;;
16522;SDS011;19889;52.546;13.348;2022-07-23T00:02:32;508.45;;;473.67;;
16522;SDS011;19889;52.546;13.348;2022-07-23T00:04:59;505.58;;;470.77;;
16522;SDS011;19889;52.546;13.348;2022-07-23T00:07:27;495.67;;;459.90;;
16522;SDS011;19889;52.546;13.348;2022-07-23T00:09:54;503.95;;;469.83;;
16522;SDS011;19889;52.546;13.348;2022-07-23T00:12:20;502.90;;;467.65;;
16522;SDS011;19889;52.546;13.348;2022-07-23T00:14:47;501.08;;;464.58;;
16522;SDS011;19889;52.546;13.348;2022-07-23T00:17:14;499.35;;;464.05;;
16522;SDS011;19889;52.546;13.348;2022-07-23T00:19:41;491.02;;;455.90;;
16522;SDS011;19889;52.546;13.348;2022-07-23T00:22:08;493.83;;;458.08;;
16522;SDS011;19889;52.546;13.348;2022-07-23T00:24:36;486.70;;;451.48;;
16522;SDS011;19889;52.546;13.348;2022-07-23T00:27:03;485.38;;;451.17;;
16522;SDS011;19889;52.546;13.348;2022-07-23T00:29:30;485.02;;;451.25;;
16522;SDS011;19889;52.546;13.348;2022-07-23T00:31:56;499.10;;;463.98;;
16522;SDS011;19889;52.546;13.348;2022-07-23T00:34:23;491.00;;;455.80;;
16522;SDS011;19889;52.546;13.348;2022-07-23T00:36:50;486.83;;;452.05;;
16522;SDS011;19889;52.546;13.348;2022-07-23T00:39:18;496.67;;;458.20;;
16522;SDS011;19889;52.546;13.348;2022-07-23T00:41:47;491.92;;;455.52;;
16522;SDS011;19889;52.546;13.348;2022-07-23T00:44:14;489.10;;;453.70;;
16522;SDS011;19889;52.546;13.348;2022-07-23T00:46:46;478.58;;;445.17;;
16522;SDS011;19889;52.546;13.348;2022-07-23T00:49:13;485.63;;;448.65;;
16522;SDS011;19889;52.546;13.348;2022-07-23T00:51:40;499.20;;;462.70;;
16522;SDS011;19889;52.546;13.348;2022-07-23T00:54:08;489.95;;;454.08;;
16522;SDS011;19889;52.546;13.348;2022-07-23T00:56:35;511.55;;;470.70;;
16522;SDS011;19889;52.546;13.348;2022-07-23T00:59:03;491.27;;;455.35;;
16522;SDS011;19889;52.546;13.348;2022-07-23T01:01:31;488.05;;;452.15;;
16522;SDS011;19889;52.546;13.348;2022-07-23T01:03:58;481.35;;;447.33;;
16522;SDS011;19889;52.546;13.348;2022-07-23T01:06:25;497.85;;;458.77;;
16522;SDS011;19889;52.546;13.348;2022-07-23T01:08:52;487.50;;;449.05;;
16522;SDS011;19889;52.546;13.348;2022-07-23T01:11:19;472.05;;;438.60;;
16522;SDS011;19889;52.546;13.348;2022-07-23T01:13:47;480.13;;;445.17;;
16522;SDS011;19889;52.546;13.348;2022-07-23T01:16:15;482.45;;;448.60;;
16522;SDS011;19889;52.546;13.348;2022-07-23T01:18:42;484.58;;;450.40;;
16522;SDS011;19889;52.546;13.348;2022-07-23T01:21:09;476.80;;;440.50;;
16522;SDS011;19889;52.546;13.348;2022-07-23T01:23:39;463.58;;;430.80;;
16522;SDS011;19889;52.546;13.348;2022-07-23T01:26:06;485.10;;;447.10;;
16522;SDS011;19889;52.546;13.348;2022-07-23T01:28:33;480.80;;;444.77;;
16522;SDS011;19889;52.546;13.348;2022-07-23T01:31:00;479.02;;;442.58;;
16522;SDS011;19889;52.546;13.348;2022-07-23T01:33:31;474.25;;;438.70;;
16522;SDS011;19889;52.546;13.348;2022-07-23T01:35:58;473.10;;;436.85;;
16522;SDS011;19889;52.546;13.348;2022-07-23T01:38:26;470.38;;;432.58;;
16522;SDS011;19889;52.546;13.348;2022-07-23T01:40:54;483.70;;;440.38;;
16522;SDS011;19889;52.546;13.348;2022-07-23T01:43:26;467.27;;;427.02;;
16522;SDS011;19889;52.546;13.348;2022-07-23T01:45:53;474.83;;;432.55;;
16522;SDS011;19889;52.546;13.348;2022-07-23T01:48:21;483.65;;;442.08;;
16522;SDS011;19889;52.546;13.348;2022-07-23T01:51:08;459.73;;;416.73;;
16522;SDS011;19889;52.546;13.348;2022-07-23T01:53:43;462.58;;;425.10;;
16522;SDS011;19889;52.546;13.348;2022-07-23T01:56:11;469.83;;;431.55;;
16522;SDS011;19889;52.546;13.348;2022-07-23T01:58:40;471.27;;;433.13;;
16522;SDS011;19889;52.546;13.348;2022-07-23T02:01:07;470.13;;;431.60;;
16522;SDS011;19889;52.546;13.348;2022-07-23T02:03:35;471.42;;;433.38;;
16522;SDS011;19889;52.546;13.348;2022-07-23T02:06:02;464.45;;;429.10;;
16522;SDS011;19889;52.546;13.348;2022-07-23T02:08:29;456.83;;;421.48;;
16522;SDS011;19889;52.546;13.348;2022-07-23T02:10:55;449.02;;;415.58;;
16522;SDS011;19889;52.546;13.348;2022-07-23T02:13:24;453.77;;;419.23;;
16522;SDS011;19889;52.546;13.348;2022-07-23T02:15:53;455.63;;;421.23;;
16522;SDS011;19889;52.546;13.348;2022-07-23T02:18:20;455.38;;;419.10;;
16522;SDS011;19889;52.546;13.348;2022-07-23T02:20:46;463.85;;;422.88;;
16522;SDS011;19889;52.546;13.348;2022-07-23T02:23:13;466.95;;;422.60;;
16522;SDS011;19889;52.546;13.348;2022-07-23T02:25:40;463.30;;;422.45;;
16522;SDS011;19889;52.546;13.348;2022-07-23T02:28:08;459.00;;;416.58;;
16522;SDS011;19889;52.546;13.348;2022-07-23T02:30:37;456.83;;;420.27;;
16522;SDS011;19889;52.546;13.348;2022-07-23T02:33:05;464.92;;;424.20;;
16522;SDS011;19889;52.546;13.348;2022-07-23T02:35:32;463.17;;;420.52;;
16522;SDS011;19889;52.546;13.348;2022-07-23T02:38:01;460.70;;;424.02;;
16522;SDS011;19889;52.546;13.348;2022-07-23T02:40:29;462.52;;;422.52;;
16522;SDS011;19889;52.546;13.348;2022-07-23T02:42:56;461.77;;;423.00;;
16522;SDS011;19889;52.546;13.348;2022-07-23T02:45:23;454.88;;;416.27;;
16522;SDS011;19889;52.546;13.348;2022-07-23T02:47:53;441.90;;;409.02;;
16522;SDS011;19889;52.546;13.348;2022-07-23T02:50:20;429.70;;;398.48;;
16522;SDS011;19889;52.546;13.348;2022-07-23T02:52:48;436.65;;;404.83;;
16522;SDS011;19889;52.546;13.348;2022-07-23T02:55:15;440.10;;;407.67;;
16522;SDS011;19889;52.546;13.348;2022-07-23T02:57:42;439.88;;;407.50;;
16522;SDS011;19889;52.546;13.348;2022-07-23T03:00:10;426.13;;;395.33;;
16522;SDS011;19889;52.546;13.348;2022-07-23T03:02:38;441.30;;;408.27;;
16522;SDS011;19889;52.546;13.348;2022-07-23T03:05:07;430.55;;;398.52;;
16522;SDS011;19889;52.546;13.348;2022-07-23T03:07:34;427.42;;;395.55;;
16522;SDS011;19889;52.546;13.348;2022-07-23T03:10:03;429.67;;;396.77;;
16522;SDS011;19889;52.546;13.348;2022-07-23T03:12:30;439.80;;;406.23;;
16522;SDS011;19889;52.546;13.348;2022-07-23T03:14:57;429.25;;;396.77;;
16522;SDS011;19889;52.546;13.348;2022-07-23T03:17:26;433.27;;;401.30;;
16522;SDS011;19889;52.546;13.348;2022-07-23T03:19:53;442.23;;;409.65;;
16522;SDS011;19889;52.546;13.348;2022-07-23T03:22:21;430.88;;;398.65;;
16522;SDS011;19889;52.546;13.348;2022-07-23T03:24:48;440.55;;;406.70;;
16522;SDS011;19889;52.546;13.348;2022-07-23T03:27:31;428.50;;;394.98;;
16522;SDS011;19889;52.546;13.348;2022-07-23T03:29:58;437.63;;;402.00;;
16522;SDS011;19889;52.546;13.348;2022-07-23T03:32:25;429.50;;;396.92;;
16522;SDS011;19889;52.546;13.348;2022-07-23T03:34:52;435.92;;;401.60;;
16522;SDS011;19889;52.546;13.348;2022-07-23T03:37:20;424.25;;;390.83;;
16522;SDS011;19889;52.546;13.348;2022-07-23T03:39:47;428.15;;;392.35;;
16522;SDS011;19889;52.546;13.348;2022-07-23T03:42:14;420.17;;;388.48;;
16522;SDS011;19889;52.546;13.348;2022-07-23T03:44:44;426.33;;;391.30;;
16522;SDS011;19889;52.546;13.348;2022-07-23T03:47:11;427.27;;;393.45;;
16522;SDS011;19889;52.546;13.348;2022-07-23T03:49:37;425.52;;;391.38;;
16522;SDS011;19889;52.546;13.348;2022-07-23T03:52:05;433.25;;;396.23;;
16522;SDS011;19889;52.546;13.348;2022-07-23T03:54:33;411.77;;;378.73;;
16522;SDS011;19889;52.546;13.348;2022-07-23T03:57:00;421.05;;;385.58;;
16522;SDS011;19889;52.546;13.348;2022-07-23T03:59:28;422.50;;;389.08;;
16522;SDS011;19889;52.546;13.348;2022-07-23T04:01:55;429.92;;;391.80;;
16522;SDS011;19889;52.546;13.348;2022-07-23T04:04:22;431.92;;;395.27;;
16522;SDS011;19889;52.546;13.348;2022-07-23T04:06:49;420.02;;;386.52;;
16522;SDS011;19889;52.546;13.348;2022-07-23T04:09:16;413.52;;;379.88;;
16522;SDS011;19889;52.546;13.348;2022-07-23T04:11:44;424.77;;;390.10;;
16522;SDS011;19889;52.546;13.348;2022-07-23T04:14:11;433.02;;;399.38;;
16522;SDS011;19889;52.546;13.348;2022-07-23T04:16:39;424.40;;;389.35;;
16522;SDS011;19889;52.546;13.348;2022-07-23T04:19:06;418.13;;;385.20;;
16522;SDS011;19889;52.546;13.348;2022-07-23T04:21:43;418.67;;;384.17;;
16522;SDS011;19889;52.546;13.348;2022-07-23T04:24:10;408.33;;;375.50;;
16522;SDS011;19889;52.546;13.348;2022-07-23T04:26:37;418.20;;;384.83;;
16522;SDS011;19889;52.546;13.348;2022-07-23T04:29:05;425.23;;;391.30;;
16522;SDS011;19889;52.546;13.348;2022-07-23T04:31:32;415.55;;;383.25;;
16522;SDS011;19889;52.546;13.348;2022-07-23T04:33:59;426.55;;;391.23;;
16522;SDS011;19889;52.546;13.348;2022-07-23T04:36:26;432.02;;;394.05;;
16522;SDS011;19889;52.546;13.348;2022-07-23T04:38:53;426.75;;;392.52;;
16522;SDS011;19889;52.546;13.348;2022-07-23T04:41:19;416.10;;;381.35;;
16522;SDS011;19889;52.546;13.348;2022-07-23T04:43:47;416.33;;;381.10;;
16522;SDS011;19889;52.546;13.348;2022-07-23T04:46:15;420.67;;;383.50;;
16522;SDS011;19889;52.546;13.348;2022-07-23T04:48:46;417.50;;;380.85;;
16522;SDS011;19889;52.546;13.348;2022-07-23T04:51:13;392.88;;;356.08;;
16522;SDS011;19889;52.546;13.348;2022-07-23T04:53:40;394.80;;;356.77;;
16522;SDS011;19889;52.546;13.348;2022-07-23T04:56:07;395.17;;;358.58;;
16522;SDS011;19889;52.546;13.348;2022-07-23T04:58:34;385.45;;;350.08;;
16522;SDS011;19889;52.546;13.348;2022-07-23T05:01:01;385.63;;;351.20;;
16522;SDS011;19889;52.546;13.348;2022-07-23T05:03:32;378.20;;;341.00;;
16522;SDS011;19889;52.546;13.348;2022-07-23T05:05:59;389.95;;;349.85;;
16522;SDS011;19889;52.546;13.348;2022-07-23T05:08:26;379.98;;;341.35;;
16522;SDS011;19889;52.546;13.348;2022-07-23T05:10:55;378.13;;;340.77;;
16522;SDS011;19889;52.546;13.348;2022-07-23T05:13:22;382.75;;;343.45;;
16522;SDS011;19889;52.546;13.348;2022-07-23T05:15:50;373.63;;;338.07;;
16522;SDS011;19889;52.546;13.348;2022-07-23T05:18:17;370.75;;;333.83;;
16522;SDS011;19889;52.546;13.348;2022-07-23T05:20:45;374.35;;;339.50;;
16522;SDS011;19889;52.546;13.348;2022-07-23T05:23:16;370.33;;;331.70;;
16522;SDS011;19889;52.546;13.348;2022-07-23T05:25:43;371.77;;;331.37;;
16522;SDS011;19889;52.546;13.348;2022-07-23T05:28:10;363.98;;;330.85;;
16522;SDS011;19889;52.546;13.348;2022-07-23T05:30:37;373.90;;;333.50;;
16522;SDS011;19889;52.546;13.348;2022-07-23T05:33:07;365.17;;;326.43;;
16522;SDS011;19889;52.546;13.348;2022-07-23T05:35:35;371.60;;;333.30;;
16522;SDS011;19889;52.546;13.348;2022-07-23T05:38:21;357.38;;;323.73;;
16522;SDS011;19889;52.546;13.348;2022-07-23T05:40:49;359.50;;;326.87;;
16522;SDS011;19889;52.546;13.348;2022-07-23T05:43:16;361.45;;;329.40;;
16522;SDS011;19889;52.546;13.348;2022-07-23T05:45:43;359.05;;;326.60;;
16522;SDS011;19889;52.546;13.348;2022-07-23T05:48:10;370.02;;;335.15;;
16522;SDS011;19889;52.546;13.348;2022-07-23T05:50:50;365.52;;;330.95;;
16522;SDS011;19889;52.546;13.348;2022-07-23T05:53:31;362.03;;;326.67;;
16522;SDS011;19889;52.546;13.348;2022-07-23T05:56:00;366.53;;;330.20;;
16522;SDS011;19889;52.546;13.348;2022-07-23T05:58:29;362.95;;;329.77;;
16522;SDS011;19889;52.546;13.348;2022-07-23T06:00:56;369.13;;;331.90;;
16522;SDS011;19889;52.546;13.348;2022-07-23T06:03:24;371.13;;;331.13;;
16522;SDS011;19889;52.546;13.348;2022-07-23T06:05:51;356.52;;;323.42;;
16522;SDS011;19889;52.546;13.348;2022-07-23T06:08:18;358.60;;;321.70;;
16522;SDS011;19889;52.546;13.348;2022-07-23T06:10:46;364.17;;;326.10;;
16522;SDS011;19889;52.546;13.348;2022-07-23T06:13:12;356.27;;;323.42;;
16522;SDS011;19889;52.546;13.348;2022-07-23T06:15:40;363.80;;;330.87;;
16522;SDS011;19889;52.546;13.348;2022-07-23T06:18:07;362.73;;;330.45;;
16522;SDS011;19889;52.546;13.348;2022-07-23T06:20:34;350.00;;;318.77;;
16522;SDS011;19889;52.546;13.348;2022-07-23T06:23:00;356.15;;;325.88;;
16522;SDS011;19889;52.546;13.348;2022-07-23T06:25:27;360.15;;;329.00;;
16522;SDS011;19889;52.546;13.348;2022-07-23T06:27:55;363.65;;;332.00;;
16522;SDS011;19889;52.546;13.348;2022-07-23T06:30:25;355.05;;;324.08;;
16522;SDS011;19889;52.546;13.348;2022-07-23T06:32:52;359.20;;;327.83;;
16522;SDS011;19889;52.546;13.348;2022-07-23T06:35:19;360.85;;;329.70;;
16522;SDS011;19889;52.546;13.348;2022-07-23T06:37:46;360.27;;;328.70;;
16522;SDS011;19889;52.546;13.348;2022-07-23T06:40:13;355.07;;;324.77;;
16522;SDS011;19889;52.546;13.348;2022-07-23T06:42:39;359.00;;;326.05;;
16522;SDS011;19889;52.546;13.348;2022-07-23T06:45:15;356.38;;;325.63;;
16522;SDS011;19889;52.546;13.348;2022-07-23T06:47:42;356.73;;;325.20;;
16522;SDS011;19889;52.546;13.348;2022-07-23T06:50:09;362.80;;;330.52;;
16522;SDS011;19889;52.546;13.348;2022-07-23T06:52:36;371.58;;;338.15;;
16522;SDS011;19889;52.546;13.348;2022-07-23T06:55:04;364.42;;;331.42;;
16522;SDS011;19889;52.546;13.348;2022-07-23T06:57:32;359.02;;;324.85;;
16522;SDS011;19889;52.546;13.348;2022-07-23T07:00:00;363.88;;;329.55;;
16522;SDS011;19889;52.546;13.348;2022-07-23T07:02:28;367.85;;;333.88;;
16522;SDS011;19889;52.546;13.348;2022-07-23T07:04:55;378.75;;;344.38;;
16522;SDS011;19889;52.546;13.348;2022-07-23T07:07:22;361.27;;;329.10;;
16522;SDS011;19889;52.546;13.348;2022-07-23T07:09:49;369.08;;;336.55;;
16522;SDS011;19889;52.546;13.348;2022-07-23T07:12:15;369.48;;;336.02;;
16522;SDS011;19889;52.546;13.348;2022-07-23T07:14:42;371.42;;;337.77;;
16522;SDS011;19889;52.546;13.348;2022-07-23T07:17:09;384.83;;;349.42;;
16522;SDS011;19889;52.546;13.348;2022-07-23T07:19:37;383.52;;;348.73;;
16522;SDS011;19889;52.546;13.348;2022-07-23T07:22:04;381.85;;;346.75;;
16522;SDS011;19889;52.546;13.348;2022-07-23T07:24:31;386.55;;;351.08;;
16522;SDS011;19889;52.546;13.348;2022-07-23T07:26:57;382.80;;;348.10;;
16522;SDS011;19889;52.546;13.348;2022-07-23T07:29:24;392.58;;;356.40;;
16522;SDS011;19889;52.546;13.348;2022-07-23T07:31:52;398.73;;;363.38;;
16522;SDS011;19889;52.546;13.348;2022-07-23T07:34:18;398.90;;;363.33;;
16522;SDS011;19889;52.546;13.348;2022-07-23T07:36:47;398.58;;;363.20;;
16522;SDS011;19889;52.546;13.348;2022-07-23T07:39:15;393.73;;;359.60;;
16522;SDS011;19889;52.546;13.348;2022-07-23T07:41:41;395.55;;;360.90;;
16522;SDS011;19889;52.546;13.348;2022-07-23T07:44:08;396.33;;;362.42;;
16522;SDS011;19889;52.546;13.348;2022-07-23T07:46:35;415.35;;;378.00;;
16522;SDS011;19889;52.546;13.348;2022-07-23T07:49:02;403.92;;;366.50;;
16522;SDS011;19889;52.546;13.348;2022-07-23T07:51:28;441.23;;;398.05;;
16522;SDS011;19889;52.546;13.348;2022-07-23T07:53:57;417.38;;;377.83;;
16522;SDS011;19889;52.546;13.348;2022-07-23T07:56:23;422.67;;;383.83;;
16522;SDS011;19889;52.546;13.348;2022-07-23T07:58:50;410.15;;;373.58;;
16522;SDS011;19889;52.546;13.348;2022-07-23T08:01:17;408.25;;;367.10;;
16522;SDS011;19889;52.546;13.348;2022-07-23T08:03:44;416.35;;;380.33;;
16522;SDS011;19889;52.546;13.348;2022-07-23T08:06:11;420.38;;;382.73;;
16522;SDS011;19889;52.546;13.348;2022-07-23T08:08:38;421.17;;;384.92;;
16522;SDS011;19889;52.546;13.348;2022-07-23T08:11:06;420.92;;;385.25;;
16522;SDS011;19889;52.546;13.348;2022-07-23T08:13:33;432.98;;;395.85;;
16522;SDS011;19889;52.546;13.348;2022-07-23T08:16:00;435.35;;;399.83;;
16522;SDS011;19889;52.546;13.348;2022-07-23T08:18:27;448.33;;;410.85;;
16522;SDS011;19889;52.546;13.348;2022-07-23T08:20:54;440.55;;;403.40;;
16522;SDS011;19889;52.546;13.348;2022-07-23T08:23:21;435.13;;;398.13;;
16522;SDS011;19889;52.546;13.348;2022-07-23T08:25:47;448.88;;;408.85;;
16522;SDS011;19889;52.546;13.348;2022-07-23T08:28:15;450.13;;;411.30;;
16522;SDS011;19889;52.546;13.348;2022-07-23T08:30:43;462.35;;;422.30;;
16522;SDS011;19889;52.546;13.348;2022-07-23T08:33:11;446.70;;;403.67;;
16522;SDS011;19889;52.546;13.348;2022-07-23T08:35:40;442.90;;;405.58;;
16522;SDS011;19889;52.546;13.348;2022-07-23T08:38:09;459.13;;;420.70;;
16522;SDS011;19889;52.546;13.348;2022-07-23T08:40:37;455.73;;;411.98;;
16522;SDS011;19889;52.546;13.348;2022-07-23T08:43:06;456.80;;;412.63;;
16522;SDS011;19889;52.546;13.348;2022-07-23T08:45:38;457.10;;;414.20;;
16522;SDS011;19889;52.546;13.348;2022-07-23T08:48:07;461.33;;;424.10;;
16522;SDS011;19889;52.546;13.348;2022-07-23T08:50:36;453.73;;;418.90;;
16522;SDS011;19889;52.546;13.348;2022-07-23T08:53:06;461.30;;;425.58;;
16522;SDS011;19889;52.546;13.348;2022-07-23T08:55:33;461.15;;;424.88;;
16522;SDS011;19889;52.546;13.348;2022-07-23T08:58:00;455.98;;;419.95;;
16522;SDS011;19889;52.546;13.348;2022-07-23T09:00:28;458.98;;;423.80;;
16522;SDS011;19889;52.546;13.348;2022-07-23T09:02:56;451.33;;;415.70;;
16522;SDS011;19889;52.546;13.348;2022-07-23T09:05:23;469.83;;;429.38;;
16522;SDS011;19889;52.546;13.348;2022-07-23T09:08:06;456.85;;;415.63;;
16522;SDS011;19889;52.546;13.348;2022-07-23T09:10:42;468.55;;;430.77;;
16522;SDS011;19889;52.546;13.348;2022-07-23T09:16:10;504.75;;;463.92;;
16522;SDS011;19889;52.546;13.348;2022-07-23T09:18:41;534.80;;;494.17;;
16522;SDS011;19889;52.546;13.348;2022-07-23T09:21:11;582.40;;;534.15;;
16522;SDS011;19889;52.546;13.348;2022-07-23T09:23:46;599.03;;;551.42;;
16522;SDS011;19889;52.546;13.348;2022-07-23T09:26:19;645.90;;;602.20;;
16522;SDS011;19889;52.546;13.348;2022-07-23T09:28:52;675.35;;;631.60;;
16522;SDS011;19889;52.546;13.348;2022-07-23T09:31:21;699.90;;;656.25;;
16522;SDS011;19889;52.546;13.348;2022-07-23T09:33:51;711.95;;;667.25;;
16522;SDS011;19889;52.546;13.348;2022-07-23T09:36:26;715.40;;;670.58;;
16522;SDS011;19889;52.546;13.348;2022-07-23T09:38:54;702.75;;;658.65;;
16522;SDS011;19889;52.546;13.348;2022-07-23T09:41:21;685.15;;;642.30;;
16522;SDS011;19889;52.546;13.348;2022-07-23T09:43:54;665.63;;;623.60;;
16522;SDS011;19889;52.546;13.348;2022-07-23T09:46:22;661.90;;;619.53;;
16522;SDS011;19889;52.546;13.348;2022-07-23T09:48:52;630.03;;;590.53;;
16522;SDS011;19889;52.546;13.348;2022-07-23T09:51:21;622.03;;;581.22;;
16522;SDS011;19889;52.546;13.348;2022-07-23T09:53:55;602.20;;;560.70;;
16522;SDS011;19889;52.546;13.348;2022-07-23T09:56:22;608.67;;;566.75;;
16522;SDS011;19889;52.546;13.348;2022-07-23T09:58:51;595.20;;;554.85;;
16522;SDS011;19889;52.546;13.348;2022-07-23T10:01:27;585.97;;;545.08;;
16522;SDS011;19889;52.546;13.348;2022-07-23T10:03:55;587.65;;;544.95;;
16522;SDS011;19889;52.546;13.348;2022-07-23T10:06:41;566.33;;;525.80;;
16522;SDS011;19889;52.546;13.348;2022-07-23T10:09:40;562.13;;;520.80;;
16522;SDS011;19889;52.546;13.348;2022-07-23T10:12:28;552.80;;;513.03;;
16522;SDS011;19889;52.546;13.348;2022-07-23T10:15:06;548.63;;;509.98;;
16522;SDS011;19889;52.546;13.348;2022-07-23T10:17:33;555.05;;;515.60;;
16522;SDS011;19889;52.546;13.348;2022-07-23T10:20:02;555.63;;;515.28;;
16522;SDS011;19889;52.546;13.348;2022-07-23T10:22:30;555.40;;;511.63;;
16522;SDS011;19889;52.546;13.348;2022-07-23T10:25:05;557.33;;;516.85;;
16522;SDS011;19889;52.546;13.348;2022-07-23T10:27:43;558.13;;;516.85;;
16522;SDS011;19889;52.546;13.348;2022-07-23T10:30:22;555.65;;;514.10;;
16522;SDS011;19889;52.546;13.348;2022-07-23T10:32:59;550.50;;;510.13;;
16522;SDS011;19889;52.546;13.348;2022-07-23T10:35:42;543.70;;;505.98;;
16522;SDS011;19889;52.546;13.348;2022-07-23T10:38:15;540.40;;;501.67;;
16522;SDS011;19889;52.546;13.348;2022-07-23T10:40:52;540.33;;;498.42;;
16522;SDS011;19889;52.546;13.348;2022-07-23T10:43:21;539.30;;;496.77;;
16522;SDS011;19889;52.546;13.348;2022-07-23T10:45:48;534.33;;;492.33;;
16522;SDS011;19889;52.546;13.348;2022-07-23T10:48:16;538.50;;;497.83;;
16522;SDS011;19889;52.546;13.348;2022-07-23T10:53:52;540.67;;;499.02;;
16522;SDS011;19889;52.546;13.348;2022-07-23T10:59:30;535.92;;;494.65;;
16522;SDS011;19889;52.546;13.348;2022-07-23T11:02:11;553.70;;;513.35;;
16522;SDS011;19889;52.546;13.348;2022-07-23T11:04:48;550.72;;;512.08;;
16522;SDS011;19889;52.546;13.348;2022-07-23T11:07:17;564.00;;;524.08;;
16522;SDS011;19889;52.546;13.348;2022-07-23T11:09:44;559.75;;;519.13;;
16522;SDS011;19889;52.546;13.348;2022-07-23T11:14:59;563.95;;;521.55;;
16522;SDS011;19889;52.546;13.348;2022-07-23T11:17:27;557.42;;;517.33;;
16522;SDS011;19889;52.546;13.348;2022-07-23T11:20:12;574.28;;;531.97;;
16522;SDS011;19889;52.546;13.348;2022-07-23T11:22:48;563.92;;;523.65;;
16522;SDS011;19889;52.546;13.348;2022-07-23T11:25:30;558.45;;;517.60;;
16522;SDS011;19889;52.546;13.348;2022-07-23T11:28:10;553.00;;;513.05;;
16522;SDS011;19889;52.546;13.348;2022-07-23T11:30:40;545.58;;;505.33;;
16522;SDS011;19889;52.546;13.348;2022-07-23T11:33:16;555.78;;;515.42;;
16522;SDS011;19889;52.546;13.348;2022-07-23T11:35:47;553.10;;;513.92;;
16522;SDS011;19889;52.546;13.348;2022-07-23T11:38:17;555.72;;;515.08;;
16522;SDS011;19889;52.546;13.348;2022-07-23T11:40:46;555.97;;;518.63;;
16522;SDS011;19889;52.546;13.348;2022-07-23T11:43:15;552.58;;;515.92;;
16522;SDS011;19889;52.546;13.348;2022-07-23T11:45:43;557.55;;;519.03;;
16522;SDS011;19889;52.546;13.348;2022-07-23T11:48:15;570.78;;;531.25;;
16522;SDS011;19889;52.546;13.348;2022-07-23T11:50:43;559.58;;;521.15;;
16522;SDS011;19889;52.546;13.348;2022-07-23T11:53:10;571.80;;;533.20;;
16522;SDS011;19889;52.546;13.348;2022-07-23T11:55:38;565.03;;;526.13;;
16522;SDS011;19889;52.546;13.348;2022-07-23T11:58:05;560.65;;;521.42;;
16522;SDS011;19889;52.546;13.348;2022-07-23T12:00:32;574.00;;;534.58;;
16522;SDS011;19889;52.546;13.348;2022-07-23T12:03:00;560.55;;;523.58;;
16522;SDS011;19889;52.546;13.348;2022-07-23T12:05:29;571.80;;;532.60;;
16522;SDS011;19889;52.546;13.348;2022-07-23T12:07:58;579.75;;;541.08;;
16522;SDS011;19889;52.546;13.348;2022-07-23T12:10:26;590.58;;;550.95;;
16522;SDS011;19889;52.546;13.348;2022-07-23T12:12:56;584.38;;;544.33;;
16522;SDS011;19889;52.546;13.348;2022-07-23T12:15:26;590.75;;;552.13;;
16522;SDS011;19889;52.546;13.348;2022-07-23T12:17:56;591.28;;;552.58;;
16522;SDS011;19889;52.546;13.348;2022-07-23T12:20:24;586.50;;;547.00;;
16522;SDS011;19889;52.546;13.348;2022-07-23T12:22:52;608.50;;;567.88;;
16522;SDS011;19889;52.546;13.348;2022-07-23T12:25:27;598.55;;;558.65;;
16522;SDS011;19889;52.546;13.348;2022-07-23T12:28:00;599.33;;;557.88;;
16522;SDS011;19889;52.546;13.348;2022-07-23T12:30:30;599.33;;;559.60;;
16522;SDS011;19889;52.546;13.348;2022-07-23T12:32:58;595.55;;;556.00;;
16522;SDS011;19889;52.546;13.348;2022-07-23T12:35:30;603.97;;;564.33;;
16522;SDS011;19889;52.546;13.348;2022-07-23T12:37:59;592.00;;;550.88;;
16522;SDS011;19889;52.546;13.348;2022-07-23T12:40:28;604.53;;;563.67;;
16522;SDS011;19889;52.546;13.348;2022-07-23T12:42:57;593.17;;;554.67;;
16522;SDS011;19889;52.546;13.348;2022-07-23T12:45:28;605.80;;;565.45;;
16522;SDS011;19889;52.546;13.348;2022-07-23T12:48:14;589.45;;;550.90;;
16522;SDS011;19889;52.546;13.348;2022-07-23T12:50:44;600.65;;;561.00;;
16522;SDS011;19889;52.546;13.348;2022-07-23T12:53:15;596.45;;;558.15;;
16522;SDS011;19889;52.546;13.348;2022-07-23T12:55:44;609.90;;;569.65;;
16522;SDS011;19889;52.546;13.348;2022-07-23T12:58:13;606.03;;;564.75;;
16522;SDS011;19889;52.546;13.348;2022-07-23T13:00:59;603.55;;;561.95;;
16522;SDS011;19889;52.546;13.348;2022-07-23T13:03:28;595.85;;;556.97;;
16522;SDS011;19889;52.546;13.348;2022-07-23T13:05:57;598.72;;;559.05;;
16522;SDS011;19889;52.546;13.348;2022-07-23T13:08:26;605.63;;;565.22;;
16522;SDS011;19889;52.546;13.348;2022-07-23T13:10:54;603.90;;;563.78;;
16522;SDS011;19889;52.546;13.348;2022-07-23T13:13:23;602.90;;;562.75;;
16522;SDS011;19889;52.546;13.348;2022-07-23T13:15:51;595.38;;;556.88;;
16522;SDS011;19889;52.546;13.348;2022-07-23T13:18:18;590.80;;;552.45;;
16522;SDS011;19889;52.546;13.348;2022-07-23T13:20:46;588.20;;;548.50;;
16522;SDS011;19889;52.546;13.348;2022-07-23T13:23:14;607.13;;;565.90;;
16522;SDS011;19889;52.546;13.348;2022-07-23T13:25:41;610.30;;;570.47;;
16522;SDS011;19889;52.546;13.348;2022-07-23T13:28:08;594.03;;;553.58;;
16522;SDS011;19889;52.546;13.348;2022-07-23T13:30:36;605.13;;;565.33;;
16522;SDS011;19889;52.546;13.348;2022-07-23T13:33:04;611.47;;;571.30;;
16522;SDS011;19889;52.546;13.348;2022-07-23T13:35:31;602.83;;;562.95;;
16522;SDS011;19889;52.546;13.348;2022-07-23T13:38:00;625.15;;;584.38;;
16522;SDS011;19889;52.546;13.348;2022-07-23T13:40:27;628.03;;;586.83;;
16522;SDS011;19889;52.546;13.348;2022-07-23T13:42:54;628.75;;;588.13;;
16522;SDS011;19889;52.546;13.348;2022-07-23T13:45:21;628.88;;;587.72;;
16522;SDS011;19889;52.546;13.348;2022-07-23T13:47:49;615.80;;;574.75;;
16522;SDS011;19889;52.546;13.348;2022-07-23T13:50:16;620.40;;;579.25;;
16522;SDS011;19889;52.546;13.348;2022-07-23T13:52:43;617.25;;;576.78;;
16522;SDS011;19889;52.546;13.348;2022-07-23T13:55:11;613.00;;;572.80;;
16522;SDS011;19889;52.546;13.348;2022-07-23T13:57:38;614.75;;;572.88;;
16522;SDS011;19889;52.546;13.348;2022-07-23T14:00:05;623.63;;;580.95;;
16522;SDS011;19889;52.546;13.348;2022-07-23T14:02:34;614.72;;;575.05;;
16522;SDS011;19889;52.546;13.348;2022-07-23T14:05:03;621.08;;;578.60;;